createdAt,value
2019-03-09T00:01:01.637Z,6.13
2019-03-09T00:03:31.020Z,8.17
2019-03-09T00:06:00.415Z,7.63
2019-03-09T00:08:29.790Z,6.10
2019-03-09T00:10:59.195Z,9.77
2019-03-09T00:13:28.558Z,6.43
2019-03-09T00:15:57.946Z,6.30
2019-03-09T00:18:27.380Z,8.17
2019-03-09T00:20:56.761Z,7.50
2019-03-09T00:23:27.780Z,5.67
2019-03-09T00:25:58.806Z,10.10
2019-03-09T00:28:32.983Z,9.20
2019-03-09T00:31:03.989Z,8.50
2019-03-09T00:33:33.761Z,7.07
2019-03-09T00:36:04.769Z,9.30
2019-03-09T00:38:34.137Z,9.47
2019-03-09T00:41:03.516Z,8.77
2019-03-09T00:43:32.982Z,7.10
2019-03-09T00:46:04.210Z,7.87
2019-03-09T00:48:33.596Z,7.97
2019-03-09T00:51:02.975Z,6.50
2019-03-09T00:53:32.390Z,7.03
2019-03-09T00:56:01.885Z,8.13
2019-03-09T00:58:31.342Z,8.53
2019-03-09T01:01:00.772Z,6.33
2019-03-09T01:03:30.164Z,7.93
2019-03-09T01:05:59.531Z,8.70
2019-03-09T01:08:30.225Z,8.47
2019-03-09T01:10:59.854Z,8.70
2019-03-09T01:13:29.421Z,6.33
2019-03-09T01:16:00.389Z,7.60
2019-03-09T01:18:29.838Z,10.23
2019-03-09T01:20:59.640Z,11.00
2019-03-09T01:23:29.013Z,8.67
2019-03-09T01:25:58.366Z,9.80
2019-03-09T01:28:27.763Z,8.37
2019-03-09T01:30:57.124Z,7.13
2019-03-09T01:33:26.507Z,5.63
2019-03-09T01:35:56.076Z,5.53
2019-03-09T01:38:25.464Z,7.97
2019-03-09T01:40:54.968Z,7.37
2019-03-09T01:43:24.472Z,6.70
2019-03-09T01:45:54.030Z,8.53
2019-03-09T01:48:23.497Z,7.73
2019-03-09T01:50:52.970Z,6.87
2019-03-09T01:53:23.220Z,7.03
2019-03-09T01:55:52.773Z,6.80
2019-03-09T01:58:22.209Z,6.97
2019-03-09T02:00:51.594Z,9.77
2019-03-09T02:03:20.971Z,7.90
2019-03-09T02:05:50.417Z,6.27
2019-03-09T02:08:19.767Z,5.80
2019-03-09T02:10:50.551Z,7.30
2019-03-09T02:13:19.893Z,7.30
2019-03-09T02:15:49.275Z,6.53
2019-03-09T02:18:19.813Z,5.77
2019-03-09T02:20:49.199Z,7.97
2019-03-09T02:23:18.565Z,9.10
2019-03-09T02:25:47.936Z,7.93
2019-03-09T02:28:17.324Z,4.67
2019-03-09T02:30:46.693Z,4.73
2019-03-09T02:33:16.096Z,4.43
2019-03-09T02:35:46.109Z,6.23
2019-03-09T02:38:26.331Z,5.63
2019-03-09T02:40:55.764Z,5.67
2019-03-09T02:43:25.058Z,3.90
2019-03-09T02:45:54.421Z,6.60
2019-03-09T02:48:23.772Z,4.63
2019-03-09T02:50:56.208Z,6.67
2019-03-09T02:53:27.199Z,5.53
2019-03-09T02:55:56.689Z,7.73
2019-03-09T02:58:26.044Z,6.40
2019-03-09T03:01:12.127Z,7.87
2019-03-09T03:03:41.496Z,6.47
2019-03-09T03:06:12.533Z,6.47
2019-03-09T03:08:41.891Z,5.60
2019-03-09T03:11:11.249Z,4.37
2019-03-09T03:13:40.641Z,6.23
2019-03-09T03:16:09.998Z,6.60
2019-03-09T03:18:39.378Z,6.43
2019-03-09T03:21:08.735Z,5.53
2019-03-09T03:23:38.197Z,7.43
2019-03-09T03:26:07.566Z,5.20
2019-03-09T03:28:36.947Z,5.53
2019-03-09T03:31:06.295Z,4.70
2019-03-09T03:33:35.780Z,6.07
2019-03-09T03:36:05.134Z,7.37
2019-03-09T03:38:34.502Z,6.23
2019-03-09T03:41:04.152Z,9.87
2019-03-09T03:43:33.436Z,6.10
2019-03-09T03:46:02.817Z,5.57
2019-03-09T03:48:32.108Z,6.63
2019-03-09T03:51:01.561Z,7.27
2019-03-09T03:53:30.939Z,4.60
2019-03-09T03:56:00.444Z,4.53
2019-03-09T03:58:29.822Z,4.17
2019-03-09T04:00:59.271Z,4.20
2019-03-09T04:03:28.658Z,5.53
2019-03-09T04:05:58.539Z,4.50
2019-03-09T04:08:28.099Z,4.97
2019-03-09T04:10:57.454Z,4.90
2019-03-09T04:13:28.341Z,7.00
2019-03-09T04:15:57.774Z,6.80
2019-03-09T04:18:27.138Z,5.43
2019-03-09T04:20:56.654Z,5.83
2019-03-09T04:23:26.054Z,4.57
2019-03-09T04:25:56.587Z,2.90
2019-03-09T04:28:25.964Z,4.00
2019-03-09T04:30:55.404Z,3.83
2019-03-09T04:33:24.760Z,5.13
2019-03-09T04:35:54.152Z,3.97
2019-03-09T04:38:23.593Z,3.03
2019-03-09T04:40:52.957Z,2.93
2019-03-09T04:43:22.353Z,3.60
2019-03-09T04:45:51.727Z,3.00
2019-03-09T04:48:21.092Z,2.93
2019-03-09T04:50:50.497Z,2.40
2019-03-09T04:53:19.924Z,2.27
2019-03-09T04:55:49.382Z,1.90
2019-03-09T04:58:18.833Z,4.17
2019-03-09T05:00:48.194Z,1.77
2019-03-09T05:03:17.577Z,1.50
2019-03-09T05:05:46.942Z,2.13
2019-03-09T05:08:19.402Z,1.50
2019-03-09T05:10:53.225Z,2.87
2019-03-09T05:13:26.166Z,1.17
2019-03-09T05:15:55.516Z,1.97
2019-03-09T05:18:24.950Z,1.00
2019-03-09T05:20:54.335Z,1.23
2019-03-09T05:23:23.717Z,1.90
2019-03-09T05:25:53.092Z,1.53
2019-03-09T05:28:22.446Z,0.97
2019-03-09T05:30:51.767Z,1.97
2019-03-09T05:33:21.109Z,1.33
2019-03-09T05:35:50.482Z,1.67
2019-03-09T05:38:19.844Z,0.60
2019-03-09T05:40:50.223Z,0.60
2019-03-09T05:43:19.595Z,1.40
2019-03-09T05:45:48.947Z,1.23
2019-03-09T05:48:18.338Z,1.00
2019-03-09T05:50:47.764Z,2.03
2019-03-09T05:53:19.082Z,0.73
2019-03-09T05:55:48.519Z,2.30
2019-03-09T05:58:18.018Z,1.03
2019-03-09T06:00:47.452Z,0.93
2019-03-09T06:03:16.864Z,0.73
2019-03-09T06:05:48.332Z,0.77
2019-03-09T06:08:17.697Z,0.60
2019-03-09T06:10:47.072Z,0.50
2019-03-09T06:13:16.437Z,0.67
2019-03-09T06:15:46.937Z,0.53
2019-03-09T06:18:16.383Z,0.93
2019-03-09T06:20:45.797Z,0.73
2019-03-09T06:23:15.144Z,1.30
2019-03-09T06:25:44.540Z,0.40
2019-03-09T06:28:13.926Z,1.37
2019-03-09T06:30:43.314Z,0.40
2019-03-09T06:33:18.414Z,1.63
2019-03-09T06:35:50.585Z,0.70
2019-03-09T06:38:23.072Z,0.83
2019-03-09T06:40:52.462Z,0.40
2019-03-09T06:43:21.840Z,0.40
2019-03-09T06:45:51.273Z,0.47
2019-03-09T06:48:20.628Z,1.13
2019-03-09T06:50:50.053Z,1.53
2019-03-09T06:53:19.550Z,0.40
2019-03-09T06:55:48.835Z,0.97
2019-03-09T06:58:18.321Z,0.33
2019-03-09T07:00:47.729Z,1.07
2019-03-09T07:03:17.126Z,0.60
2019-03-09T07:06:05.814Z,0.40
2019-03-09T07:08:35.205Z,0.93
2019-03-09T07:11:04.569Z,1.57
2019-03-09T07:13:33.923Z,0.57
2019-03-09T07:16:03.315Z,0.60
2019-03-09T07:18:33.518Z,0.70
2019-03-09T07:21:03.148Z,0.67
2019-03-09T07:23:32.527Z,0.40
2019-03-09T07:26:01.928Z,0.30
2019-03-09T07:28:31.308Z,0.70
2019-03-09T07:31:00.689Z,1.60
2019-03-09T07:33:30.084Z,1.30
2019-03-09T07:35:59.705Z,0.60
2019-03-09T07:38:29.167Z,0.70
2019-03-09T07:40:58.555Z,1.60
2019-03-09T07:43:27.949Z,0.60
2019-03-09T07:45:57.310Z,0.77
2019-03-09T07:48:26.756Z,0.80
2019-03-09T07:50:56.327Z,2.23
2019-03-09T07:53:27.425Z,4.10
2019-03-09T07:55:56.802Z,6.10
2019-03-09T07:58:26.193Z,1.17
2019-03-09T08:00:57.102Z,1.97
2019-03-09T08:03:26.511Z,2.70
2019-03-09T08:05:55.948Z,7.80
2019-03-09T08:08:25.399Z,2.40
2019-03-09T08:10:54.778Z,0.73
2019-03-09T08:13:24.152Z,0.60
2019-03-09T08:15:53.620Z,1.57
2019-03-09T08:18:22.977Z,1.60
2019-03-09T08:20:53.914Z,1.67
2019-03-09T08:23:23.290Z,0.77
2019-03-09T08:25:52.755Z,0.97
2019-03-09T08:28:22.120Z,0.70
2019-03-09T08:30:51.535Z,1.80
2019-03-09T08:33:20.955Z,0.50
2019-03-09T08:35:50.375Z,1.90
2019-03-09T08:38:19.797Z,0.63
2019-03-09T08:40:49.163Z,0.83
2019-03-09T08:43:18.560Z,1.47
2019-03-09T08:45:47.934Z,0.70
2019-03-09T08:48:17.391Z,1.27
2019-03-09T08:50:46.758Z,1.13
2019-03-09T08:53:16.179Z,0.50
2019-03-09T08:55:45.642Z,0.90
2019-03-09T08:58:15.095Z,1.60
2019-03-09T09:00:44.764Z,0.77
2019-03-09T09:03:14.148Z,2.20
2019-03-09T09:05:43.528Z,1.67
2019-03-09T09:08:12.937Z,1.00
2019-03-09T09:10:42.370Z,1.80
2019-03-09T09:13:11.753Z,1.30
2019-03-09T09:15:41.160Z,1.57
2019-03-09T09:18:10.589Z,0.70
2019-03-09T09:20:39.983Z,0.97
2019-03-09T09:23:09.426Z,0.70
2019-03-09T09:25:38.835Z,1.10
2019-03-09T09:28:08.209Z,1.70
2019-03-09T09:30:37.579Z,2.60
2019-03-09T09:33:06.960Z,3.07
2019-03-09T09:35:36.351Z,1.63
2019-03-09T09:38:05.746Z,2.20
2019-03-09T09:40:35.119Z,1.40
2019-03-09T09:43:04.644Z,1.20
2019-03-09T09:45:34.025Z,2.60
2019-03-09T09:48:03.416Z,0.87
2019-03-09T09:50:32.777Z,1.00
2019-03-09T09:53:02.153Z,4.87
2019-03-09T09:55:31.533Z,1.93
2019-03-09T09:58:00.904Z,1.73
2019-03-09T10:00:30.474Z,1.37
2019-03-09T10:02:59.890Z,1.33
2019-03-09T10:05:29.322Z,2.13
2019-03-09T10:07:58.644Z,1.83
2019-03-09T10:10:29.736Z,1.00
2019-03-09T10:12:59.149Z,1.23
2019-03-09T10:15:30.932Z,1.43
2019-03-09T10:18:00.296Z,1.13
2019-03-09T10:20:29.709Z,2.00
2019-03-09T10:23:04.151Z,1.37
2019-03-09T10:25:30.360Z,1.47
2019-03-09T10:27:59.838Z,1.00
2019-03-09T10:30:29.217Z,1.57
2019-03-09T10:32:58.618Z,1.73
2019-03-09T10:35:28.007Z,1.00
2019-03-09T10:37:57.379Z,0.73
2019-03-09T10:40:26.781Z,1.20
2019-03-09T10:42:56.158Z,1.20
2019-03-09T10:45:25.561Z,3.20
2019-03-09T10:47:54.946Z,0.80
2019-03-09T10:50:25.977Z,1.63
2019-03-09T10:52:55.598Z,1.23
2019-03-09T10:55:26.931Z,1.50
2019-03-09T10:57:56.371Z,1.53
2019-03-09T11:00:31.266Z,1.57
2019-03-09T11:03:00.715Z,2.33
2019-03-09T11:05:30.372Z,1.17
2019-03-09T11:07:59.801Z,1.77
2019-03-09T11:10:30.709Z,1.57
2019-03-09T11:13:00.892Z,1.07
2019-03-09T11:15:30.888Z,1.20
2019-03-09T11:18:00.355Z,1.60
2019-03-09T11:20:29.743Z,1.57
2019-03-09T11:22:59.199Z,1.53
2019-03-09T11:25:29.188Z,1.13
2019-03-09T11:28:07.422Z,1.70
2019-03-09T11:30:36.900Z,1.47
2019-03-09T11:33:06.292Z,1.67
2019-03-09T11:35:35.709Z,1.57
2019-03-09T11:38:05.253Z,1.20
2019-03-09T11:40:34.619Z,1.10
2019-03-09T11:43:04.370Z,1.50
2019-03-09T11:45:34.090Z,1.30
2019-03-09T11:48:03.493Z,1.27
2019-03-09T11:50:33.091Z,0.90
2019-03-09T11:53:02.607Z,0.80
2019-03-09T11:55:31.993Z,0.90
2019-03-09T11:58:01.675Z,1.67
2019-03-09T12:00:41.719Z,1.80
2019-03-09T12:03:11.115Z,1.40
2019-03-09T12:05:41.051Z,1.13
2019-03-09T12:08:10.439Z,0.80
2019-03-09T12:10:39.820Z,0.77
2019-03-09T12:13:09.285Z,0.80
2019-03-09T12:15:38.713Z,2.77
2019-03-09T12:18:08.096Z,1.17
2019-03-09T12:20:37.542Z,1.27
2019-03-09T12:23:12.735Z,0.90
2019-03-09T12:25:42.089Z,1.93
2019-03-09T12:28:11.532Z,0.80
2019-03-09T12:30:40.967Z,1.00
2019-03-09T12:33:10.598Z,0.70
2019-03-09T12:35:40.070Z,0.97
2019-03-09T12:38:09.435Z,1.17
2019-03-09T12:40:38.813Z,1.30
2019-03-09T12:43:08.747Z,1.23
2019-03-09T12:45:38.195Z,2.30
2019-03-09T12:48:07.592Z,0.83
2019-03-09T12:50:36.988Z,0.50
2019-03-09T12:53:06.374Z,1.07
2019-03-09T12:55:35.745Z,0.53
2019-03-09T12:58:06.636Z,0.87
2019-03-09T13:00:36.081Z,0.50
2019-03-09T13:03:05.478Z,0.63
2019-03-09T13:05:34.901Z,0.93
2019-03-09T13:08:04.299Z,0.47
2019-03-09T13:10:33.730Z,1.90
2019-03-09T13:13:03.131Z,2.77
2019-03-09T13:15:32.507Z,2.00
2019-03-09T13:18:01.905Z,1.13
2019-03-09T13:20:31.338Z,1.40
2019-03-09T13:23:00.710Z,3.00
2019-03-09T13:25:30.098Z,1.73
2019-03-09T13:27:59.471Z,1.07
2019-03-09T13:30:28.862Z,0.60
2019-03-09T13:32:58.230Z,0.70
2019-03-09T13:35:27.621Z,3.03
2019-03-09T13:37:57.031Z,0.83
2019-03-09T13:40:26.423Z,0.70
2019-03-09T13:42:55.814Z,2.03
2019-03-09T13:45:26.833Z,0.93
2019-03-09T13:47:56.327Z,0.30
2019-03-09T13:50:25.618Z,0.50
2019-03-09T13:52:54.987Z,0.30
2019-03-09T13:55:24.367Z,0.50
2019-03-09T13:57:53.787Z,0.70
2019-03-09T14:00:23.223Z,0.40
2019-03-09T14:02:52.618Z,1.43
2019-03-09T14:05:22.048Z,0.30
2019-03-09T14:07:51.456Z,0.80
2019-03-09T14:10:20.858Z,0.50
2019-03-09T14:12:50.237Z,0.40
2019-03-09T14:15:29.293Z,0.40
2019-03-09T14:17:58.858Z,0.40
2019-03-09T14:20:28.299Z,0.37
2019-03-09T14:22:57.702Z,0.30
2019-03-09T14:25:27.213Z,0.30
2019-03-09T14:27:56.717Z,0.33
2019-03-09T14:30:26.622Z,0.43
2019-03-09T14:32:56.038Z,0.30
2019-03-09T14:35:25.624Z,0.40
2019-03-09T14:37:55.071Z,0.70
2019-03-09T14:40:24.524Z,0.60
2019-03-09T14:42:53.985Z,0.53
2019-03-09T14:45:24.921Z,0.40
2019-03-09T14:47:54.351Z,0.90
2019-03-09T14:50:23.727Z,1.53
2019-03-09T14:52:53.214Z,0.57
2019-03-09T14:55:22.774Z,0.60
2019-03-09T14:57:52.638Z,1.00
2019-03-09T15:00:25.017Z,1.17
2019-03-09T15:02:54.428Z,2.30
2019-03-09T15:05:24.013Z,0.70
2019-03-09T15:07:53.482Z,1.07
2019-03-09T15:10:22.939Z,1.83
2019-03-09T15:12:52.347Z,1.17
2019-03-09T15:15:21.823Z,1.50
2019-03-09T15:17:51.240Z,1.90
2019-03-09T15:20:20.655Z,2.17
2019-03-09T15:22:50.137Z,1.90
2019-03-09T15:25:20.176Z,2.27
2019-03-09T15:27:49.691Z,3.37
2019-03-09T15:30:20.193Z,1.97
2019-03-09T15:32:49.705Z,1.50
2019-03-09T15:35:20.137Z,3.27
2019-03-09T15:37:51.089Z,2.53
2019-03-09T15:40:21.113Z,2.63
2019-03-09T15:42:51.312Z,2.10
2019-03-09T15:45:21.219Z,3.07
2019-03-09T15:47:51.040Z,2.43
2019-03-09T15:50:21.550Z,3.10
2019-03-09T15:52:52.393Z,2.43
2019-03-09T15:55:21.763Z,4.70
2019-03-09T15:57:51.256Z,3.33
2019-03-09T16:00:24.355Z,4.40
2019-03-09T16:02:55.503Z,3.97
2019-03-09T16:05:24.900Z,4.27
2019-03-09T16:07:54.294Z,3.73
2019-03-09T16:10:26.092Z,5.03
2019-03-09T16:12:55.550Z,6.20
2019-03-09T16:15:25.075Z,7.47
2019-03-09T16:17:55.068Z,6.13
2019-03-09T16:20:28.492Z,5.70
2019-03-09T16:23:00.581Z,5.07
2019-03-09T16:25:29.899Z,7.23
2019-03-09T16:27:59.321Z,6.30
2019-03-09T16:30:28.785Z,9.87
2019-03-09T16:32:58.167Z,4.47
2019-03-09T16:35:27.571Z,5.53
2019-03-09T16:37:57.032Z,7.37
2019-03-09T16:40:26.699Z,4.53
2019-03-09T16:42:56.228Z,8.83
2019-03-09T16:45:25.649Z,7.07
2019-03-09T16:47:59.946Z,7.77
2019-03-09T16:50:26.091Z,5.80
2019-03-09T16:52:56.913Z,6.77
2019-03-09T16:55:26.310Z,6.43
2019-03-09T16:57:55.686Z,5.73
2019-03-09T17:00:25.510Z,5.93
2019-03-09T17:02:54.908Z,4.33
2019-03-09T17:05:24.341Z,7.03
2019-03-09T17:07:53.818Z,9.03
2019-03-09T17:10:23.372Z,9.13
2019-03-09T17:12:52.768Z,7.70
2019-03-09T17:15:25.573Z,9.07
2019-03-09T17:17:54.994Z,6.30
2019-03-09T17:20:24.357Z,11.73
2019-03-09T17:22:55.367Z,8.70
2019-03-09T17:25:24.730Z,9.53
2019-03-09T17:27:54.095Z,10.07
2019-03-09T17:30:23.486Z,5.70
2019-03-09T17:32:52.852Z,7.40
2019-03-09T17:35:22.318Z,8.17
2019-03-09T17:37:51.686Z,9.50
2019-03-09T17:40:21.166Z,8.20
2019-03-09T17:42:50.547Z,9.10
2019-03-09T17:45:24.960Z,10.40
2019-03-09T17:47:54.332Z,7.90
2019-03-09T17:50:23.727Z,6.77
2019-03-09T17:52:53.121Z,7.27
2019-03-09T17:55:22.467Z,6.70
2019-03-09T17:57:51.844Z,9.50
2019-03-09T18:00:27.207Z,8.87
2019-03-09T18:02:56.646Z,9.40
2019-03-09T18:05:26.009Z,7.97
2019-03-09T18:07:55.396Z,7.80
2019-03-09T18:10:40.239Z,10.03
2019-03-09T18:13:09.625Z,9.40
2019-03-09T18:15:39.008Z,10.80
2019-03-09T18:18:08.375Z,9.37
2019-03-09T18:20:37.749Z,9.30
2019-03-09T18:23:07.220Z,10.43
2019-03-09T18:25:36.579Z,10.40
2019-03-09T18:28:05.975Z,8.80
2019-03-09T18:30:35.484Z,10.10
2019-03-09T18:33:04.873Z,8.90
2019-03-09T18:35:34.278Z,7.80
2019-03-09T18:38:03.632Z,10.13
2019-03-09T18:40:33.031Z,11.53
2019-03-09T18:43:02.535Z,12.90
2019-03-09T18:45:31.953Z,10.37
2019-03-09T18:48:01.365Z,13.87
2019-03-09T18:50:30.846Z,12.93
2019-03-09T18:53:00.812Z,10.27
2019-03-09T18:55:30.414Z,15.03
2019-03-09T18:57:59.784Z,10.30
2019-03-09T19:00:29.225Z,10.77
2019-03-09T19:02:58.699Z,13.60
2019-03-09T19:05:29.525Z,12.60
2019-03-09T19:07:59.135Z,10.07
2019-03-09T19:10:28.513Z,12.13
2019-03-09T19:12:57.895Z,12.50
2019-03-09T19:15:31.711Z,14.13
2019-03-09T19:18:01.113Z,12.50
2019-03-09T19:20:30.558Z,13.83
2019-03-09T19:22:59.947Z,12.17
2019-03-09T19:25:29.627Z,12.30
2019-03-09T19:27:59.020Z,15.80
2019-03-09T19:30:28.393Z,12.03
2019-03-09T19:33:00.685Z,13.30
2019-03-09T19:35:28.935Z,14.80
2019-03-09T19:37:58.330Z,17.73
2019-03-09T19:40:27.802Z,15.73
2019-03-09T19:42:57.317Z,14.13
2019-03-09T19:45:26.770Z,13.57
2019-03-09T19:47:56.278Z,11.07
2019-03-09T19:50:27.011Z,14.03
2019-03-09T19:52:58.817Z,17.20
2019-03-09T19:55:27.520Z,15.43
2019-03-09T19:57:56.979Z,14.47
2019-03-09T20:00:26.380Z,15.50
2019-03-09T20:02:55.742Z,13.80
2019-03-09T20:05:25.280Z,18.10
2019-03-09T20:07:54.657Z,13.17
2019-03-09T20:10:24.407Z,11.90
2019-03-09T20:12:53.783Z,16.30
2019-03-09T20:15:23.231Z,16.07
2019-03-09T20:17:52.644Z,13.33
2019-03-09T20:20:22.492Z,12.43
2019-03-09T20:22:51.963Z,14.60
2019-03-09T20:25:21.483Z,16.40
2019-03-09T20:27:50.877Z,12.97
2019-03-09T20:30:21.279Z,14.27
2019-03-09T20:32:50.661Z,14.13
2019-03-09T20:35:20.055Z,10.97
2019-03-09T20:37:49.485Z,14.83
2019-03-09T20:40:18.877Z,13.03
2019-03-09T20:42:48.247Z,14.43
2019-03-09T20:45:19.910Z,15.43
2019-03-09T20:47:49.281Z,14.90
2019-03-09T20:50:20.976Z,14.80
2019-03-09T20:52:50.355Z,15.13
2019-03-09T20:55:19.804Z,13.33
2019-03-09T20:57:49.197Z,15.20
2019-03-09T21:00:22.180Z,17.00
2019-03-09T21:02:51.632Z,17.30
2019-03-09T21:05:21.079Z,15.70
2019-03-09T21:07:52.020Z,11.93
2019-03-09T21:10:21.672Z,17.53
2019-03-09T21:12:56.623Z,16.63
2019-03-09T21:15:26.000Z,17.83
2019-03-09T21:17:55.391Z,15.73
2019-03-09T21:20:24.764Z,14.30
2019-03-09T21:22:54.248Z,17.17
2019-03-09T21:25:23.621Z,16.47
2019-03-09T21:27:53.091Z,15.67
2019-03-09T21:30:22.595Z,17.23
2019-03-09T21:32:52.077Z,12.47
2019-03-09T21:35:21.454Z,21.20
2019-03-09T21:37:50.823Z,16.47
2019-03-09T21:40:20.219Z,16.80
2019-03-09T21:42:49.592Z,19.87
2019-03-09T21:45:19.042Z,22.07
2019-03-09T21:47:48.355Z,14.67
2019-03-09T21:50:18.394Z,19.53
2019-03-09T21:52:47.770Z,21.00
2019-03-09T21:55:17.632Z,21.63
2019-03-09T21:57:47.085Z,14.53
2019-03-09T22:00:18.868Z,19.40
2019-03-09T22:02:50.162Z,16.30
2019-03-09T22:05:19.529Z,19.40
2019-03-09T22:07:48.899Z,16.47
2019-03-09T22:10:18.297Z,15.90
2019-03-09T22:12:47.628Z,18.43
2019-03-09T22:15:19.997Z,17.17
2019-03-09T22:17:49.477Z,15.20
2019-03-09T22:20:20.607Z,19.13
2019-03-09T22:22:49.946Z,20.10
2019-03-09T22:25:19.373Z,19.93
2019-03-09T22:27:48.797Z,14.27
2019-03-09T22:30:23.549Z,17.93
2019-03-09T22:32:53.004Z,16.63
2019-03-09T22:35:22.428Z,15.47
2019-03-09T22:37:51.893Z,15.80
2019-03-09T22:40:21.311Z,14.33
2019-03-09T22:42:50.755Z,17.73
2019-03-09T22:45:20.144Z,19.23
2019-03-09T22:47:49.507Z,18.10
2019-03-09T22:50:23.273Z,18.20
2019-03-09T22:52:52.634Z,15.93
2019-03-09T22:55:22.096Z,18.00
2019-03-09T22:57:51.936Z,20.80
2019-03-09T23:00:28.804Z,19.40
2019-03-09T23:02:58.183Z,18.20
2019-03-09T23:05:27.623Z,13.30
2019-03-09T23:07:57.086Z,17.33
2019-03-09T23:10:27.835Z,18.60
2019-03-09T23:12:57.267Z,17.57
2019-03-09T23:15:26.631Z,17.77
2019-03-09T23:17:56.021Z,19.23
2019-03-09T23:20:25.384Z,17.33
2019-03-09T23:22:54.785Z,19.63
2019-03-09T23:25:24.148Z,21.37
2019-03-09T23:27:53.524Z,22.50
2019-03-09T23:30:23.488Z,18.20
2019-03-09T23:32:52.857Z,21.57
2019-03-09T23:35:22.378Z,16.60
2019-03-09T23:37:51.758Z,19.23
2019-03-09T23:40:25.131Z,20.33
2019-03-09T23:42:54.660Z,18.20
2019-03-09T23:45:26.770Z,21.07
2019-03-09T23:47:59.067Z,17.60
2019-03-09T23:50:28.469Z,19.17
2019-03-09T23:52:57.843Z,16.37
2019-03-09T23:55:28.077Z,22.33
2019-03-09T23:57:57.455Z,22.03
